createdAt,value
2022-10-23T00:01:16.128Z,9.50
2022-10-23T00:03:44.491Z,7.93
2022-10-23T00:06:14.532Z,7.67
2022-10-23T00:08:42.972Z,7.40
2022-10-23T00:11:13.143Z,7.83
2022-10-23T00:13:41.899Z,7.30
2022-10-23T00:16:10.604Z,7.77
2022-10-23T00:18:39.654Z,6.57
2022-10-23T00:21:08.801Z,6.90
2022-10-23T00:23:38.158Z,6.47
2022-10-23T00:26:11.009Z,6.17
2022-10-23T00:28:39.036Z,6.90
2022-10-23T00:31:07.164Z,6.57
2022-10-23T00:33:37.464Z,6.63
2022-10-23T00:36:07.255Z,6.63
2022-10-23T00:38:35.880Z,6.63
2022-10-23T00:41:05.638Z,6.53
2022-10-23T00:43:35.036Z,6.87
2022-10-23T00:46:02.842Z,6.67
2022-10-23T00:48:30.791Z,5.83
2022-10-23T00:50:58.623Z,5.63
2022-10-23T00:53:26.434Z,5.23
2022-10-23T00:55:57.566Z,6.00
2022-10-23T00:58:26.814Z,4.90
2022-10-23T01:00:56.524Z,5.50
2022-10-23T01:03:28.758Z,5.57
2022-10-23T01:06:10.486Z,4.70
2022-10-23T01:08:48.088Z,4.20
2022-10-23T01:11:21.566Z,4.93
2022-10-23T01:16:40.637Z,5.47
2022-10-23T01:19:18.393Z,4.30
2022-10-23T01:21:55.973Z,4.63
2022-10-23T01:24:47.149Z,4.63
2022-10-23T01:27:23.699Z,4.87
2022-10-23T01:30:03.266Z,5.93
2022-10-23T01:32:43.975Z,5.77
2022-10-23T01:35:17.637Z,4.27
2022-10-23T01:37:54.822Z,4.17
2022-10-23T01:40:27.447Z,3.53
2022-10-23T01:43:07.738Z,4.70
2022-10-23T01:45:42.079Z,5.50
2022-10-23T01:48:19.276Z,5.50
2022-10-23T01:50:48.110Z,4.90
2022-10-23T01:53:16.106Z,4.80
2022-10-23T01:55:45.785Z,4.63
2022-10-23T01:58:22.697Z,4.47
2022-10-23T02:00:52.876Z,4.50
2022-10-23T02:03:21.753Z,3.90
2022-10-23T02:05:50.034Z,4.40
2022-10-23T02:08:18.063Z,4.23
2022-10-23T02:10:55.826Z,4.00
2022-10-23T02:13:30.845Z,3.80
2022-10-23T02:16:05.765Z,4.23
2022-10-23T02:18:41.123Z,4.30
2022-10-23T02:21:13.154Z,4.60
2022-10-23T02:23:46.190Z,5.03
2022-10-23T02:26:18.828Z,3.70
2022-10-23T02:28:55.301Z,4.13
2022-10-23T02:31:24.657Z,3.73
2022-10-23T02:33:52.709Z,4.27
2022-10-23T02:36:21.021Z,4.80
2022-10-23T02:38:48.850Z,3.70
2022-10-23T02:41:24.127Z,4.00
2022-10-23T02:44:04.508Z,3.53
2022-10-23T02:46:43.552Z,3.23
2022-10-23T02:49:18.039Z,3.80
2022-10-23T02:51:56.425Z,3.60
2022-10-23T02:54:41.166Z,3.83
2022-10-23T02:57:20.998Z,3.73
2022-10-23T02:59:58.468Z,3.17
2022-10-23T03:02:33.604Z,3.60
2022-10-23T03:05:03.215Z,3.37
2022-10-23T03:07:31.156Z,4.10
2022-10-23T03:10:07.509Z,3.53
2022-10-23T03:12:35.717Z,3.17
2022-10-23T03:15:07.816Z,3.50
2022-10-23T03:17:35.685Z,3.03
2022-10-23T03:20:04.407Z,2.87
2022-10-23T03:22:32.442Z,2.90
2022-10-23T03:25:01.342Z,2.80
2022-10-23T03:27:31.241Z,3.30
2022-10-23T03:30:01.402Z,3.37
2022-10-23T03:32:32.411Z,3.60
2022-10-23T03:35:01.252Z,3.40
2022-10-23T03:37:29.103Z,3.33
2022-10-23T03:39:56.860Z,4.13
2022-10-23T03:42:24.642Z,4.47
2022-10-23T03:44:52.409Z,3.83
2022-10-23T03:47:21.063Z,3.10
2022-10-23T03:49:50.333Z,3.60
2022-10-23T03:52:18.240Z,5.30
2022-10-23T03:54:46.082Z,7.37
2022-10-23T03:57:13.934Z,8.40
2022-10-23T03:59:41.610Z,9.50
2022-10-23T04:02:09.590Z,8.77
2022-10-23T04:04:37.360Z,9.17
2022-10-23T04:07:08.782Z,6.70
2022-10-23T04:09:36.944Z,7.57
2022-10-23T04:12:05.375Z,7.27
2022-10-23T04:14:35.272Z,7.07
2022-10-23T04:17:04.080Z,7.23
2022-10-23T04:19:32.285Z,5.70
2022-10-23T04:22:02.479Z,6.23
2022-10-23T04:24:31.590Z,4.80
2022-10-23T04:26:59.498Z,4.33
2022-10-23T04:29:32.320Z,4.60
2022-10-23T04:32:00.185Z,4.20
2022-10-23T04:34:29.216Z,4.83
2022-10-23T04:36:59.273Z,4.57
2022-10-23T04:39:27.197Z,5.17
2022-10-23T04:41:56.562Z,4.77
2022-10-23T04:44:26.331Z,4.83
2022-10-23T04:46:54.073Z,5.10
2022-10-23T04:49:22.157Z,5.13
2022-10-23T04:52:09.913Z,4.90
2022-10-23T04:54:53.614Z,3.87
2022-10-23T04:57:28.660Z,3.70
2022-10-23T05:00:02.119Z,4.27
2022-10-23T05:02:36.563Z,4.23
2022-10-23T05:05:05.135Z,4.50
2022-10-23T05:07:44.462Z,3.60
2022-10-23T05:10:24.925Z,4.10
2022-10-23T05:13:14.953Z,4.23
2022-10-23T05:18:15.109Z,4.50
2022-10-23T05:20:46.558Z,3.50
2022-10-23T05:23:17.717Z,3.93
2022-10-23T05:25:54.583Z,3.90
2022-10-23T05:28:49.821Z,3.70
2022-10-23T05:31:20.668Z,4.27
2022-10-23T05:33:51.870Z,5.33
2022-10-23T05:36:23.035Z,4.63
2022-10-23T05:38:56.684Z,4.13
2022-10-23T05:41:24.633Z,4.63
2022-10-23T05:43:54.122Z,4.83
2022-10-23T05:46:42.678Z,4.43
2022-10-23T05:49:19.596Z,5.20
2022-10-23T05:51:56.613Z,6.23
2022-10-23T05:54:31.235Z,7.30
2022-10-23T05:57:25.528Z,7.80
2022-10-23T05:59:55.345Z,8.17
2022-10-23T06:02:41.673Z,10.10
2022-10-23T06:05:26.505Z,9.37
2022-10-23T06:08:19.858Z,9.30
2022-10-23T06:10:50.723Z,9.20
2022-10-23T06:13:19.561Z,8.90
2022-10-23T06:15:49.490Z,7.93
2022-10-23T06:18:23.077Z,7.30
2022-10-23T06:20:56.438Z,7.57
2022-10-23T06:23:28.245Z,6.60
2022-10-23T06:26:17.015Z,7.57
2022-10-23T06:29:02.389Z,6.63
2022-10-23T06:31:32.290Z,5.83
2022-10-23T06:34:01.106Z,5.43
2022-10-23T06:36:30.861Z,5.57
2022-10-23T06:39:11.976Z,4.60
2022-10-23T06:42:08.393Z,4.20
2022-10-23T06:44:51.486Z,4.33
2022-10-23T06:47:36.977Z,4.30
2022-10-23T06:50:25.088Z,4.00
2022-10-23T06:52:54.229Z,4.20
2022-10-23T06:55:23.052Z,4.00
2022-10-23T06:57:50.948Z,3.50
2022-10-23T07:00:21.420Z,3.90
2022-10-23T07:02:54.641Z,4.20
2022-10-23T07:05:23.698Z,4.10
2022-10-23T07:07:51.744Z,3.30
2022-10-23T07:10:26.032Z,3.80
2022-10-23T07:13:01.099Z,4.67
2022-10-23T07:15:40.994Z,6.20
2022-10-23T07:18:15.186Z,7.40
2022-10-23T07:21:12.609Z,8.83
2022-10-23T07:23:41.349Z,7.67
2022-10-23T07:26:10.960Z,8.07
2022-10-23T07:28:39.101Z,9.13
2022-10-23T07:31:06.955Z,8.27
2022-10-23T07:33:59.008Z,6.53
2022-10-23T07:36:26.877Z,7.10
2022-10-23T07:38:55.058Z,6.67
2022-10-23T07:41:22.873Z,7.70
2022-10-23T07:43:50.788Z,8.30
2022-10-23T07:46:18.740Z,8.07
2022-10-23T07:48:47.041Z,9.13
2022-10-23T07:51:18.567Z,7.37
2022-10-23T07:53:50.185Z,6.93
2022-10-23T07:56:56.333Z,6.67
2022-10-23T07:59:44.318Z,5.73
2022-10-23T08:02:15.582Z,6.03
2022-10-23T08:04:44.944Z,5.90
2022-10-23T08:07:27.697Z,4.60
2022-10-23T08:09:57.991Z,4.50
2022-10-23T08:12:27.014Z,3.97
2022-10-23T08:14:56.210Z,3.80
2022-10-23T08:17:28.325Z,3.30
2022-10-23T08:20:06.284Z,3.60
2022-10-23T08:22:41.798Z,3.67
2022-10-23T08:25:12.059Z,3.00
2022-10-23T08:27:40.015Z,3.37
2022-10-23T08:30:09.038Z,3.37
2022-10-23T08:32:37.121Z,2.67
2022-10-23T08:35:05.470Z,3.40
2022-10-23T08:37:34.425Z,3.40
2022-10-23T08:40:04.783Z,3.47
2022-10-23T08:42:59.997Z,4.10
2022-10-23T08:45:33.623Z,2.73
2022-10-23T08:48:19.657Z,2.67
2022-10-23T08:51:12.475Z,2.50
2022-10-23T08:53:47.764Z,2.80
2022-10-23T08:56:23.512Z,3.10
2022-10-23T08:58:56.705Z,2.80
2022-10-23T09:01:37.082Z,2.73
2022-10-23T09:04:06.260Z,2.50
2022-10-23T09:06:38.854Z,2.30
2022-10-23T09:09:21.784Z,2.60
2022-10-23T09:12:00.659Z,3.03
2022-10-23T09:14:46.986Z,4.10
2022-10-23T09:17:24.119Z,4.30
2022-10-23T09:19:56.980Z,4.67
2022-10-23T09:22:24.859Z,4.97
2022-10-23T09:24:53.892Z,6.07
2022-10-23T09:27:23.233Z,6.37
2022-10-23T09:29:53.290Z,8.13
2022-10-23T09:32:22.128Z,8.33
2022-10-23T09:34:54.376Z,7.93
2022-10-23T09:37:25.317Z,7.70
2022-10-23T09:40:09.325Z,9.20
2022-10-23T09:42:38.653Z,9.50
2022-10-23T09:45:23.638Z,8.97
2022-10-23T09:48:05.948Z,9.70
2022-10-23T09:50:34.067Z,6.17
2022-10-23T09:53:02.588Z,5.80
2022-10-23T09:55:30.665Z,5.73
2022-10-23T09:57:59.880Z,4.23
2022-10-23T10:00:28.661Z,3.60
2022-10-23T10:02:59.735Z,3.37
2022-10-23T10:05:39.301Z,3.13
2022-10-23T10:08:28.889Z,2.53
2022-10-23T10:11:01.269Z,3.20
2022-10-23T10:14:04.502Z,2.50
2022-10-23T10:16:45.342Z,2.70
2022-10-23T10:19:26.761Z,2.77
2022-10-23T10:22:04.775Z,2.77
2022-10-23T10:24:41.693Z,2.57
2022-10-23T10:27:20.091Z,3.20
2022-10-23T10:30:04.609Z,2.73
2022-10-23T10:32:41.208Z,3.50
2022-10-23T10:35:27.109Z,2.93
2022-10-23T10:38:44.292Z,3.37
2022-10-23T10:41:39.569Z,3.70
2022-10-23T10:44:43.511Z,4.30
2022-10-23T10:47:21.378Z,3.93
2022-10-23T10:50:01.467Z,4.10
2022-10-23T10:53:01.851Z,4.43
2022-10-23T10:55:35.701Z,4.10
2022-10-23T10:58:06.804Z,5.03
2022-10-23T11:00:35.471Z,4.37
2022-10-23T11:03:19.820Z,4.33
2022-10-23T11:05:50.463Z,5.60
2022-10-23T11:08:24.790Z,3.90
2022-10-23T11:10:58.911Z,3.60
2022-10-23T11:13:35.372Z,2.47
2022-10-23T11:16:09.853Z,1.97
2022-10-23T11:18:42.908Z,1.90
2022-10-23T11:21:27.103Z,2.20
2022-10-23T11:24:21.855Z,1.90
2022-10-23T11:27:03.506Z,2.10
2022-10-23T11:29:57.167Z,1.87
2022-10-23T11:32:37.787Z,1.93
2022-10-23T11:35:21.745Z,1.90
2022-10-23T11:38:00.083Z,2.30
2022-10-23T11:40:28.516Z,2.07
2022-10-23T11:42:56.335Z,1.90
2022-10-23T11:45:33.507Z,1.90
2022-10-23T11:48:03.184Z,1.73
2022-10-23T11:50:34.990Z,1.80
2022-10-23T11:53:14.668Z,1.80
2022-10-23T11:55:59.197Z,1.90
2022-10-23T11:58:31.902Z,2.13
2022-10-23T12:01:04.823Z,2.10
2022-10-23T12:03:49.669Z,2.00
2022-10-23T12:06:26.927Z,1.97
2022-10-23T12:08:58.328Z,1.93
2022-10-23T12:11:42.778Z,1.87
2022-10-23T12:14:27.769Z,1.50
2022-10-23T12:16:55.764Z,1.80
2022-10-23T12:19:26.162Z,1.70
2022-10-23T12:21:58.393Z,1.63
2022-10-23T12:24:39.782Z,1.67
2022-10-23T12:27:17.631Z,1.67
2022-10-23T12:30:01.316Z,1.87
2022-10-23T12:32:44.684Z,1.80
2022-10-23T12:35:48.925Z,1.80
2022-10-23T12:38:21.147Z,2.00
2022-10-23T12:40:53.189Z,1.60
2022-10-23T12:43:29.244Z,1.53
2022-10-23T12:46:01.860Z,1.70
2022-10-23T12:48:29.689Z,1.80
2022-10-23T12:50:57.658Z,1.60
2022-10-23T12:53:29.223Z,1.80
2022-10-23T12:56:02.221Z,1.63
2022-10-23T12:58:32.037Z,1.80
2022-10-23T13:01:05.035Z,1.50
2022-10-23T13:03:36.716Z,1.60
2022-10-23T13:06:05.605Z,1.50
2022-10-23T13:08:41.980Z,1.40
2022-10-23T13:11:29.434Z,1.40
2022-10-23T13:14:00.514Z,1.43
2022-10-23T13:16:28.274Z,1.33
2022-10-23T13:18:56.269Z,1.20
2022-10-23T13:21:26.064Z,1.23
2022-10-23T13:23:56.364Z,1.63
2022-10-23T13:26:33.103Z,1.67
2022-10-23T13:29:07.412Z,1.57
2022-10-23T13:31:37.870Z,1.13
2022-10-23T13:34:15.351Z,1.70
2022-10-23T13:36:53.610Z,1.50
2022-10-23T13:39:26.465Z,1.60
2022-10-23T13:41:54.568Z,1.60
2022-10-23T13:44:24.882Z,1.50
2022-10-23T13:46:53.046Z,1.40
2022-10-23T13:49:21.829Z,1.70
2022-10-23T13:51:53.058Z,1.50
2022-10-23T13:54:23.330Z,1.10
2022-10-23T13:56:53.156Z,1.70
2022-10-23T13:59:21.669Z,1.60
2022-10-23T14:01:50.849Z,1.60
2022-10-23T14:04:19.712Z,1.40
2022-10-23T14:06:49.898Z,1.17
2022-10-23T14:09:19.488Z,1.50
2022-10-23T14:11:47.762Z,1.57
2022-10-23T14:14:17.038Z,1.50
2022-10-23T14:16:47.102Z,1.47
2022-10-23T14:19:14.841Z,1.40
2022-10-23T14:21:42.741Z,1.43
2022-10-23T14:24:10.517Z,1.40
2022-10-23T14:26:38.419Z,1.37
2022-10-23T14:29:09.891Z,1.40
2022-10-23T14:31:43.158Z,1.30
2022-10-23T14:34:10.995Z,1.80
2022-10-23T14:36:49.890Z,1.73
2022-10-23T14:39:18.114Z,1.10
2022-10-23T14:41:46.101Z,1.50
2022-10-23T14:44:14.150Z,1.53
2022-10-23T14:46:43.314Z,1.47
2022-10-23T14:49:11.254Z,1.20
2022-10-23T14:51:40.048Z,1.30
2022-10-23T14:54:12.980Z,1.17
2022-10-23T14:56:41.096Z,1.10
2022-10-23T14:59:12.432Z,1.27
2022-10-23T15:01:45.202Z,1.23
2022-10-23T15:04:15.571Z,1.10
2022-10-23T15:06:44.999Z,1.00
2022-10-23T15:09:13.036Z,1.20
2022-10-23T15:11:40.931Z,1.20
2022-10-23T15:14:09.061Z,1.50
2022-10-23T15:16:41.115Z,2.13
2022-10-23T15:19:12.202Z,1.60
2022-10-23T15:21:44.684Z,1.70
2022-10-23T15:24:12.599Z,1.23
2022-10-23T15:26:42.930Z,1.20
2022-10-23T15:29:11.326Z,1.70
2022-10-23T15:31:48.701Z,1.27
2022-10-23T15:34:19.532Z,1.37
2022-10-23T15:36:49.759Z,3.23
2022-10-23T15:39:19.674Z,2.40
2022-10-23T15:41:52.771Z,2.10
2022-10-23T15:44:22.998Z,1.80
2022-10-23T15:46:51.587Z,1.40
2022-10-23T15:49:20.570Z,1.30
2022-10-23T15:51:49.852Z,1.57
2022-10-23T15:54:19.674Z,1.20
2022-10-23T15:56:49.184Z,1.43
2022-10-23T15:59:17.977Z,1.50
2022-10-23T16:01:46.853Z,1.47
2022-10-23T16:04:15.959Z,1.60
2022-10-23T16:06:44.169Z,1.60
2022-10-23T16:09:13.980Z,1.30
2022-10-23T16:11:43.634Z,1.20
2022-10-23T16:14:14.160Z,1.40
2022-10-23T16:16:42.134Z,1.33
2022-10-23T16:19:12.147Z,1.43
2022-10-23T16:21:40.327Z,1.33
2022-10-23T16:24:09.543Z,2.63
2022-10-23T16:26:39.172Z,1.77
2022-10-23T16:29:08.844Z,1.40
2022-10-23T16:31:36.827Z,2.00
2022-10-23T16:34:05.985Z,2.90
2022-10-23T16:36:34.822Z,1.90
2022-10-23T16:39:10.041Z,1.80
2022-10-23T16:41:58.501Z,1.93
2022-10-23T16:44:35.002Z,1.47
2022-10-23T16:47:06.030Z,2.00
2022-10-23T16:49:34.424Z,1.80
2022-10-23T16:52:02.774Z,1.60
2022-10-23T16:54:33.430Z,2.00
2022-10-23T16:57:02.968Z,1.60
2022-10-23T16:59:33.749Z,1.70
2022-10-23T17:02:01.688Z,1.30
2022-10-23T17:04:29.802Z,1.80
2022-10-23T17:06:57.659Z,1.63
2022-10-23T17:09:27.459Z,1.73
2022-10-23T17:11:55.266Z,1.50
2022-10-23T17:14:28.826Z,2.20
2022-10-23T17:16:58.052Z,1.97
2022-10-23T17:22:17.169Z,1.67
2022-10-23T17:24:47.608Z,1.47
2022-10-23T17:27:18.402Z,1.50
2022-10-23T17:29:49.928Z,1.93
2022-10-23T17:32:18.100Z,1.50
2022-10-23T17:34:46.458Z,2.10
2022-10-23T17:37:14.480Z,2.10
2022-10-23T17:39:42.569Z,1.87
2022-10-23T17:42:10.612Z,2.90
2022-10-23T17:44:38.361Z,2.10
2022-10-23T17:47:07.651Z,1.97
2022-10-23T17:49:35.521Z,2.10
2022-10-23T17:52:03.518Z,2.60
2022-10-23T17:54:31.299Z,2.87
2022-10-23T17:56:59.271Z,2.23
2022-10-23T17:59:27.067Z,2.70
2022-10-23T18:01:55.866Z,2.80
2022-10-23T18:04:25.984Z,2.53
2022-10-23T18:06:54.604Z,2.13
2022-10-23T18:09:23.964Z,2.60
2022-10-23T18:11:52.697Z,2.70
2022-10-23T18:14:25.141Z,2.20
2022-10-23T18:16:55.418Z,2.40
2022-10-23T18:19:23.230Z,2.20
2022-10-23T18:21:52.680Z,2.17
2022-10-23T18:24:20.688Z,2.20
2022-10-23T18:26:49.208Z,2.60
2022-10-23T18:29:18.292Z,2.30
2022-10-23T18:31:47.972Z,2.20
2022-10-23T18:34:18.027Z,2.83
2022-10-23T18:36:45.967Z,2.97
2022-10-23T18:39:17.293Z,2.67
2022-10-23T18:41:46.425Z,2.50
2022-10-23T18:44:16.739Z,2.23
2022-10-23T18:46:44.806Z,2.00
2022-10-23T18:49:15.713Z,2.50
2022-10-23T18:51:43.776Z,2.80
2022-10-23T18:54:14.052Z,2.60
2022-10-23T18:56:43.912Z,2.53
2022-10-23T18:59:15.946Z,2.80
2022-10-23T19:01:44.399Z,2.40
2022-10-23T19:04:15.560Z,2.40
2022-10-23T19:06:43.692Z,2.40
2022-10-23T19:09:13.774Z,2.60
2022-10-23T19:11:44.185Z,2.77
2022-10-23T19:14:12.305Z,2.60
2022-10-23T19:16:45.413Z,3.00
2022-10-23T19:19:17.598Z,2.90
2022-10-23T19:21:46.616Z,2.80
2022-10-23T19:24:17.396Z,3.10
2022-10-23T19:26:46.945Z,2.33
2022-10-23T19:29:19.483Z,3.43
2022-10-23T19:31:49.305Z,3.07
2022-10-23T19:34:19.758Z,3.53
2022-10-23T19:36:47.846Z,3.57
2022-10-23T19:39:16.091Z,3.53
2022-10-23T19:41:44.690Z,3.20
2022-10-23T19:44:14.832Z,3.50
2022-10-23T19:46:43.256Z,2.90
2022-10-23T19:49:13.572Z,2.73
2022-10-23T19:51:49.666Z,2.70
2022-10-23T19:54:19.424Z,3.20
2022-10-23T19:56:50.003Z,2.80
2022-10-23T19:59:19.855Z,3.17
2022-10-23T20:01:49.350Z,3.70
2022-10-23T20:04:18.280Z,4.13
2022-10-23T20:06:46.503Z,3.10
2022-10-23T20:09:14.548Z,2.77
2022-10-23T20:11:43.443Z,3.60
2022-10-23T20:14:11.573Z,3.60
2022-10-23T20:16:41.415Z,2.80
2022-10-23T20:19:11.796Z,3.93
2022-10-23T20:21:43.997Z,2.50
2022-10-23T20:24:13.570Z,3.13
2022-10-23T20:26:42.314Z,2.90
2022-10-23T20:29:10.786Z,3.07
2022-10-23T20:31:40.490Z,2.77
2022-10-23T20:34:09.168Z,3.50
2022-10-23T20:36:43.780Z,3.33
2022-10-23T20:39:16.785Z,3.63
2022-10-23T20:41:45.063Z,3.30
2022-10-23T20:46:47.100Z,3.60
2022-10-23T20:49:15.734Z,3.00
2022-10-23T20:51:43.894Z,3.00
2022-10-23T20:54:11.989Z,3.00
2022-10-23T20:56:40.854Z,3.53
2022-10-23T20:59:12.218Z,4.40
2022-10-23T21:01:41.122Z,4.20
2022-10-23T21:04:12.594Z,3.53
2022-10-23T21:06:51.892Z,3.37
2022-10-23T21:09:30.398Z,3.73
2022-10-23T21:11:58.231Z,3.47
2022-10-23T21:14:26.153Z,4.30
2022-10-23T21:16:54.016Z,3.13
2022-10-23T21:19:23.305Z,4.23
2022-10-23T21:21:53.735Z,3.20
2022-10-23T21:24:21.726Z,4.37
2022-10-23T21:26:49.608Z,4.10
2022-10-23T21:29:18.994Z,3.50
2022-10-23T21:31:52.870Z,3.70
2022-10-23T21:34:20.862Z,3.60
2022-10-23T21:39:38.090Z,3.67
2022-10-23T21:42:06.062Z,3.07
2022-10-23T21:44:34.027Z,3.77
2022-10-23T21:47:01.837Z,3.07
2022-10-23T21:49:30.183Z,3.90
2022-10-23T21:51:59.425Z,3.27
2022-10-23T21:54:27.495Z,3.23
2022-10-23T21:56:55.428Z,2.60
2022-10-23T21:59:27.652Z,3.40
2022-10-23T22:01:58.195Z,3.40
2022-10-23T22:04:26.125Z,3.27
2022-10-23T22:06:54.151Z,4.00
2022-10-23T22:09:24.227Z,3.50
2022-10-23T22:11:53.105Z,4.33
2022-10-23T22:14:21.264Z,8.40
2022-10-23T22:16:49.965Z,5.97
2022-10-23T22:19:19.581Z,4.40
2022-10-23T22:21:48.718Z,3.73
2022-10-23T22:24:17.772Z,3.77
2022-10-23T22:26:52.353Z,3.77
2022-10-23T22:29:23.002Z,3.37
2022-10-23T22:31:51.866Z,3.10
2022-10-23T22:34:28.718Z,3.10
2022-10-23T22:37:11.135Z,3.00
2022-10-23T22:39:40.028Z,3.10
2022-10-23T22:42:09.575Z,2.93
2022-10-23T22:44:37.532Z,3.17
2022-10-23T22:47:06.168Z,3.17
2022-10-23T22:49:34.231Z,3.47
2022-10-23T22:52:02.087Z,2.73
2022-10-23T22:54:31.206Z,3.83
2022-10-23T22:56:59.085Z,3.07
2022-10-23T22:59:28.336Z,3.60
2022-10-23T23:01:56.381Z,3.00
2022-10-23T23:04:42.771Z,3.40
2022-10-23T23:07:12.570Z,3.07
2022-10-23T23:09:42.800Z,2.93
2022-10-23T23:12:13.493Z,3.37
2022-10-23T23:14:43.504Z,3.40
2022-10-23T23:17:12.375Z,2.90
2022-10-23T23:19:40.520Z,4.30
2022-10-23T23:22:08.557Z,3.10
2022-10-23T23:24:36.499Z,3.40
2022-10-23T23:27:04.478Z,2.67
2022-10-23T23:29:32.639Z,2.73
2022-10-23T23:32:01.935Z,4.00
2022-10-23T23:34:30.200Z,2.70
2022-10-23T23:36:58.138Z,2.90
2022-10-23T23:39:28.274Z,2.97
2022-10-23T23:41:56.167Z,2.80
2022-10-23T23:44:24.054Z,2.90
2022-10-23T23:46:52.024Z,3.50
2022-10-23T23:49:21.229Z,2.93
2022-10-23T23:51:49.563Z,3.53
2022-10-23T23:54:17.524Z,3.53
2022-10-23T23:56:45.547Z,4.40
2022-10-23T23:59:15.547Z,4.33
